Terminal Aerodrome Forecast
Issued by NWS

Home | Current Version | Previous Version | Graphics & Text | Print | Product List | Glossary On
Versions: 1 2 3 4 5 6 7 8 9 10 11 12 13 14 15 16 17 18 19 20 21 22 23 24 25 26 27 28 29 30
347
FTUS43 KLOT 170323 AAB
TAFDPA
TAF AMD
KDPA 170323Z 1703/1724 10008KT 2SM SHRA BR OVC003
      TEMPO 1704/1707 1/2SM FG OVC002
     FM170700 12006KT 1 1/2SM -RA BR OVC003
      TEMPO 1708/1712 3/4SM BR
     FM171300 24010KT 1SM -DZ BR OVC003
     FM172000 27008KT 4SM BR VCSH OVC007=

USA.gov is the U.S. government's official web portal to all federal, state and local government web resources and services.